• Join FlightAware (Why Join?)
  • Login
  • US Flag 
09:52PM EDT


 

Airport Tracker/Info


-or-


 

Live Flight TrackerFlight Track Log ✈ AWE801 ✈ 05-May-2013 ✈ SBGL / GIG - KCLT

Flight Track Log - Related Links

Times and Time Zones

All times are in EDT time to prevent confusion due to time zone crossing. See the AWE801 flight status page for this flight to view local times or setup timezone preferences in your user account.

Time Position Orientation Groundspeed Altitude Reporting Facility
EDT Latitude Longitude Course Direction KTS MPH feet Rate Location/Type
09:55PM -22.7990 -43.2050 74° East 191 220 1,200  Level FlightAware
09:55PM -22.7880 -43.1870 56° Northeast 193 222 2,300 2,640 Climbing FlightAware
09:56PM -22.7680 -43.1740 31° Northeast 195 224 3,400 2,400 Climbing FlightAware
09:56PM -22.7370 -43.1570 27° Northeast 224 258 4,500 1,980 Climbing FlightAware
09:56PM -22.7230 -43.1440 41° Northeast 251 289 4,900 1,560 Climbing FlightAware
09:57PM -22.7180 -43.1280 71° East 273 314 5,300 2,700 Climbing FlightAware
09:57PM -22.7330 -43.0850 111° Southeast 298 343 6,700 3,120 Climbing FlightAware
09:57PM -22.7500 -43.0740 149° Southeast 298 343 7,400 3,120 Climbing FlightAware
09:58PM -22.7820 -43.0560 153° Southeast 302 348 8,800 2,880 Climbing FlightAware
09:58PM -22.8310 -43.0130 141° Southeast 326 375 10,800 2,400 Climbing FlightAware
09:59PM -22.8390 -42.9990 122° Southeast 339 390 11,000 1,200 Climbing FlightAware
09:59PM -22.8430 -42.9650 97° East 359 413 11,400 1,200 Climbing FlightAware
09:59PM -22.8400 -42.9460 80° East 366 421 11,600 1,440 Climbing FlightAware
09:59PM -22.8260 -42.9220 58° Northeast 369 425 12,000 1,620 Climbing FlightAware
10:00PM -22.7670 -42.8810 33° Northeast 387 445 13,100 1,740 Climbing FlightAware
10:00PM -22.7430 -42.8720 19° North 384 442 13,600 2,160 Climbing FlightAware
10:00PM -22.7150 -42.8700 North 376 433 14,200 2,580 Climbing FlightAware
10:01PM -22.6910 -42.8760 347° North 367 422 14,900 2,040 Climbing FlightAware
10:01PM -22.6310 -42.9120 331° Northwest 377 434 16,100 1,800 Climbing FlightAware
10:02PM -22.5610 -42.9570 329° Northwest 381 438 17,500 1,800 Climbing FlightAware
10:03PM -22.5010 -42.9950 330° Northwest 391 450 18,700 1,860 Climbing FlightAware
10:03PM -22.4380 -43.0370 328° Northwest 402 463 20,000 1,800 Climbing FlightAware
10:04PM -22.3660 -43.0820 330° Northwest 410 472 21,300 1,740 Climbing FlightAware
10:05PM -22.2990 -43.1250 329° Northwest 418 481 22,500 1,680 Climbing FlightAware
10:06PM -22.2220 -43.1750 329° Northwest 426 490 23,700 1,620 Climbing FlightAware
10:06PM -22.1540 -43.2180 330° Northwest 432 497 24,800 1,620 Climbing FlightAware
10:07PM -22.0850 -43.2630 329° Northwest 436 502 25,900 1,020 Climbing FlightAware
10:08PM -22.0210 -43.3040 329° Northwest 438 504 26,200 180 Climbing FlightAware
10:08PM -21.9620 -43.3430 328° Northwest 438 504 26,200  Level FlightAware
10:09PM -21.8880 -43.3910 329° Northwest 438 504 26,200  Level FlightAware
10:10PM -21.8290 -43.4290 329° Northwest 438 504 26,200  Level FlightAware
10:10PM -21.7700 -43.4670 329° Northwest 438 504 26,200  Level FlightAware
10:11PM -21.7110 -43.5050 329° Northwest 438 504 26,200 3,180 Level FlightAware
10:13PM -21.4180 -43.6890 327° Northwest 415 478 35,900 3,420 Climbing FlightAware
10:14PM -21.4660 -43.6735 327° Northwest  Level Estimated
10:14PM -21.3500 -43.7320 330° Northwest 413 475 36,600  Level FlightAware
10:15PM -21.2710 -43.7820 329° Northwest 413 475 37,200 720 Climbing FlightAware
10:16PM -21.1980 -43.8270 330° Northwest 414 476 37,700 540 Climbing FlightAware
10:16PM -21.1300 -43.8700 329° Northwest 416 479 38,000 180 Climbing FlightAware
10:17PM -21.0560 -43.9170 329° Northwest 419 482 38,000  Level FlightAware
10:18PM -20.9980 -43.9530 330° Northwest 418 481 38,000  Level FlightAware
10:18PM -20.9320 -43.9950 329° Northwest 416 479 38,000  Level FlightAware
10:19PM -20.8380 -44.0530 330° Northwest 414 476 38,000  Level FlightAware
10:20PM -20.7800 -44.0890 330° Northwest 412 474 38,000  Level FlightAware
10:21PM -20.6990 -44.1390 330° Northwest 411 473 38,000  Level FlightAware
10:21PM -20.6240 -44.1860 330° Northwest 410 472 38,000  Level FlightAware
10:22PM -20.5580 -44.2280 329° Northwest 411 473 38,000  Level FlightAware
10:23PM -20.4930 -44.2680 330° Northwest 411 473 38,000  Level FlightAware
10:23PM -20.4210 -44.3150 329° Northwest 412 474 38,000  Level FlightAware
10:24PM -20.3530 -44.3590 329° Northwest 414 476 38,000  Level FlightAware
10:25PM -20.2900 -44.3990 329° Northwest 415 478 38,000  Level FlightAware
10:26PM -20.2130 -44.4480 329° Northwest 417 480 38,000  Level FlightAware
10:26PM -20.1460 -44.4910 329° Northwest 418 481 38,000  Level FlightAware
10:27PM -20.0880 -44.5280 329° Northwest 419 482 38,000  Level FlightAware
10:28PM -20.0060 -44.5800 329° Northwest 420 483 38,000  Level FlightAware
10:28PM -19.9390 -44.6230 329° Northwest 420 483 38,000  Level FlightAware
10:29PM -19.8720 -44.6650 329° Northwest 421 484 38,000  Level FlightAware
10:30PM -19.7950 -44.7140 329° Northwest 421 484 38,000  Level FlightAware
10:30PM -19.7220 -44.7610 329° Northwest 421 484 38,000  Level FlightAware
10:31PM -19.6570 -44.8020 329° Northwest 421 484 38,000  Level FlightAware
10:32PM -19.5870 -44.8470 329° Northwest 422 486 38,000  Level FlightAware
10:33PM -19.5140 -44.8930 329° Northwest 423 487 38,000  Level FlightAware
10:33PM -19.4450 -44.9380 328° Northwest 425 489 38,000  Level FlightAware
10:34PM -19.3700 -44.9860 329° Northwest 427 491 38,000  Level FlightAware
10:35PM -19.3060 -45.0270 329° Northwest 427 491 38,000  Level FlightAware
10:35PM -19.2320 -45.0730 330° Northwest 428 493 38,000  Level FlightAware
10:36PM -19.1310 -45.1390 328° Northwest 429 494 38,000  Level FlightAware
10:37PM -19.0620 -45.1820 329° Northwest 428 493 38,000  Level FlightAware
10:38PM -18.9950 -45.2260 328° Northwest 429 494 38,000  Level FlightAware
10:39PM -18.9000 -45.2850 330° Northwest 430 495 38,000  Level FlightAware
10:40PM -18.7980 -45.3500 329° Northwest 430 495 38,000  Level FlightAware
10:40PM -18.7280 -45.3940 329° Northwest 431 496 38,000  Level FlightAware
10:41PM -18.6510 -45.4420 329° Northwest 430 495 38,000  Level FlightAware
10:42PM -18.5830 -45.4850 329° Northwest 430 495 38,000  Level FlightAware
10:42PM -18.5140 -45.5270 330° Northwest 430 495 38,000  Level FlightAware
10:43PM -18.4360 -45.5740 330° Northwest 430 495 38,000  Level FlightAware
10:44PM -18.3690 -45.6170 329° Northwest 429 494 38,000  Level FlightAware
10:44PM -18.2930 -45.6650 329° Northwest 429 494 38,000  Level FlightAware
10:45PM -18.2230 -45.7090 329° Northwest 430 495 38,000  Level FlightAware
10:46PM -18.1550 -45.7520 329° Northwest 431 496 38,000  Level FlightAware
10:47PM -18.0770 -45.8000 330° Northwest 431 496 38,000  Level FlightAware
10:47PM -18.0180 -45.8380 329° Northwest 430 495 38,000  Level FlightAware
10:48PM -17.9330 -45.8910 329° Northwest 430 495 38,000  Level FlightAware
10:49PM -17.8630 -45.9340 330° Northwest 430 495 38,000  Level FlightAware
10:49PM -17.7940 -45.9770 329° Northwest 430 495 38,000  Level FlightAware
10:50PM -17.7180 -46.0230 330° Northwest 430 495 38,000  Level FlightAware
10:51PM -17.6510 -46.0650 329° Northwest 430 495 38,000  Level FlightAware
10:51PM -17.5800 -46.1080 330° Northwest 430 495 38,000  Level FlightAware
10:52PM -17.5230 -46.1430 330° Northwest 430 495 38,000  Level FlightAware
10:53PM -17.4360 -46.1970 329° Northwest 430 495 38,000  Level FlightAware
10:54PM -17.3560 -46.2460 330° Northwest 431 496 38,000  Level FlightAware
10:54PM -17.2950 -46.2840 329° Northwest 432 497 38,000  Level FlightAware
10:55PM -17.2100 -46.3360 330° Northwest 432 497 38,000  Level FlightAware
10:56PM -17.1400 -46.3790 330° Northwest 433 498 38,000  Level FlightAware
10:56PM -17.0720 -46.4210 329° Northwest 434 499 38,000  Level FlightAware
10:57PM -16.9930 -46.4710 329° Northwest 434 499 38,000  Level FlightAware
10:58PM -16.9330 -46.5090 329° Northwest 434 499 38,000  Level FlightAware
10:58PM -16.8750 -46.5470 328° Northwest 434 499 38,000  Level FlightAware
10:59PM -16.8170 -46.5850 328° Northwest 434 499 38,000  Level FlightAware
11:00PM -16.7600 -46.6230 327° Northwest 434 499 38,000  Level FlightAware
11:01PM -16.6870 -46.6700 328° Northwest 434 499 38,000  Level FlightAware
11:01PM -16.6290 -46.7080 328° Northwest 434 499 38,000  Level FlightAware
11:02PM -16.5710 -46.7460 328° Northwest 434 499 38,000  Level FlightAware
11:03PM -16.5130 -46.7830 329° Northwest 434 499 38,000  Level FlightAware
11:03PM -16.4560 -46.8210 327° Northwest 434 499 38,000  Level FlightAware
11:04PM -16.2590 -46.9230 334° Northwest 436 502 38,000  Level FlightAware
11:05PM -16.2000 -46.9600 329° Northwest 436 502 38,000  Level FlightAware
11:06PM -16.0990 -47.0200 330° Northwest 438 504 38,000  Level FlightAware
11:06PM -16.0230 -47.0670 329° Northwest 437 503 38,000  Level FlightAware
11:07PM -15.9440 -47.1150 330° Northwest 437 503 38,000  Level FlightAware
11:08PM -15.8730 -47.1590 329° Northwest 438 504 38,000  Level FlightAware
11:08PM -15.8050 -47.2000 330° Northwest 438 504 38,000  Level FlightAware
11:09PM -15.7450 -47.2370 329° Northwest 439 505 38,000  Level FlightAware
11:10PM -15.6720 -47.2810 330° Northwest 438 504 38,000  Level FlightAware
11:11PM -15.5800 -47.3370 330° Northwest 439 505 38,000  Level FlightAware
11:11PM -15.5070 -47.3900 325° Northwest 437 503 38,000  Level FlightAware
11:12PM -15.4430 -47.4390 324° Northwest 437 503 38,000  Level FlightAware
11:13PM -15.3700 -47.4960 323° Northwest 437 503 38,000  Level FlightAware
11:14PM -15.2860 -47.5610 323° Northwest 437 503 38,000  Level FlightAware
11:14PM -15.2210 -47.6120 323° Northwest 439 505 38,000  Level FlightAware
11:15PM -15.1430 -47.6710 324° Northwest 439 505 38,000  Level FlightAware
11:16PM -15.0790 -47.7210 323° Northwest 439 505 38,000  Level FlightAware
11:16PM -15.0160 -47.7700 323° Northwest 441 507 38,000  Level FlightAware
11:17PM -14.9600 -47.8130 323° Northwest 442 509 38,000  Level FlightAware
11:18PM -14.8750 -47.8780 324° Northwest 442 509 38,000  Level FlightAware
11:19PM -14.8080 -47.9300 323° Northwest 442 509 38,000  Level FlightAware
11:19PM -14.7530 -47.9730 323° Northwest 442 509 38,000  Level FlightAware
11:20PM -14.6620 -48.0420 324° Northwest 445 512 38,000  Level FlightAware
11:20PM -14.6090 -48.0840 323° Northwest 443 510 38,000  Level FlightAware
11:21PM -14.5380 -48.1530 317° Northwest 443 510 38,000  Level FlightAware
11:22PM -14.4820 -48.2120 314° West 443 510 38,000  Level FlightAware
11:23PM -14.4240 -48.2710 315° West 444 511 38,000  Level FlightAware
11:23PM -14.3660 -48.3310 315° West 444 511 38,000  Level FlightAware
11:24PM -14.3050 -48.3940 315° West 444 511 38,000  Level FlightAware
11:25PM -14.2300 -48.4710 315° West 444 511 38,000  Level FlightAware
11:25PM -14.1780 -48.5240 315° West 443 510 38,000  Level FlightAware
11:26PM -14.0940 -48.6100 315° West 444 511 38,000  Level FlightAware
11:27PM -14.0110 -48.6960 315° West 444 511 38,000  Level FlightAware
11:28PM -13.9480 -48.7600 315° West 444 511 38,000  Level FlightAware
11:29PM -13.8770 -48.8310 316° Northwest 445 512 38,000  Level FlightAware
11:30PM -13.8140 -48.8950 315° West 446 513 38,000  Level FlightAware
11:30PM -13.7530 -48.9570 315° West 446 513 38,000  Level FlightAware
11:31PM -13.6910 -49.0210 315° West 446 513 38,000  Level FlightAware
11:32PM -13.6030 -49.1060 317° Northwest 449 517 38,000  Level FlightAware
11:33PM -13.4710 -49.2380 329° Northwest 451 519 38,000  Level FlightAware
11:34PM -13.4317 -49.2109 329° Northwest  Level Estimated
11:34PM -13.4080 -49.3030 315° West 451 519 38,000  Level FlightAware
11:35PM -13.3520 -49.3400 327° Northwest 451 519 38,000  Level FlightAware
11:35PM -13.2950 -49.3730 331° Northwest 451 519 38,000  Level FlightAware
11:36PM -13.2050 -49.4180 334° Northwest 452 520 38,000  Level FlightAware
11:37PM -13.1320 -49.4560 333° Northwest 452 520 38,000  Level FlightAware
11:37PM -13.0690 -49.4890 333° Northwest 452 520 38,000  Level FlightAware
11:38PM -13.0050 -49.5220 333° Northwest 452 520 38,000  Level FlightAware
11:39PM -12.9260 -49.5630 333° Northwest 452 520 38,000  Level FlightAware
11:40PM -12.8630 -49.5960 333° Northwest 452 520 38,000  Level FlightAware
11:40PM -12.7990 -49.6300 333° Northwest 452 520 38,000  Level FlightAware
11:40PM -13.2050 -49.4180 153° Southeast 38,000  Level FlightAware
11:42PM -12.5310 -49.7660 333° Northwest 453 521 38,000  Level FlightAware
11:43PM -12.4630 -49.8020 333° Northwest 453 521 38,000  Level FlightAware
11:43PM -12.4740 -49.7960 152° Southeast 453 521 38,000  Level FlightAware
11:44PM -12.2730 -49.8990 333° Northwest 451 519 38,000  Level FlightAware
11:45PM -12.2100 -49.9310 334° Northwest 450 518 38,000  Level FlightAware
11:46PM -12.1070 -49.9840 333° Northwest 449 517 38,000  Level FlightAware
11:47PM -12.0140 -50.0320 333° Northwest 448 516 38,000  Level FlightAware
11:47PM -11.9340 -50.0730 333° Northwest 447 514 38,000  Level FlightAware
11:48PM -11.8640 -50.1090 333° Northwest 445 512 38,000  Level FlightAware
11:49PM -11.7530 -50.1660 333° Northwest 444 511 38,000  Level FlightAware
11:50PM -11.6520 -50.2170 334° Northwest 442 509 38,000  Level FlightAware
11:51PM -11.5760 -50.2570 333° Northwest 442 509 38,000  Level FlightAware
11:51PM -11.6520 -50.2170 153° Southeast 38,000  Level FlightAware
11:52PM -11.4500 -50.3210 333° Northwest 443 510 38,000  Level FlightAware
11:52PM -11.3670 -50.3630 334° Northwest 443 510 38,000  Level FlightAware
11:53PM -11.3020 -50.3960 334° Northwest 443 510 38,000  Level FlightAware
11:54PM -11.2110 -50.4430 333° Northwest 443 510 38,000  Level FlightAware
11:54PM -11.1560 -50.4710 333° Northwest 443 510 38,000  Level FlightAware
11:55PM -11.0710 -50.5140 334° Northwest 444 511 38,000  Level FlightAware
11:56PM -10.9810 -50.5600 333° Northwest 444 511 38,000  Level FlightAware
11:56PM -10.9190 -50.5910 334° Northwest 444 511 38,000  Level FlightAware
11:57PM -10.8230 -50.6400 333° Northwest 446 513 38,000  Level FlightAware
11:58PM -10.7670 -50.6680 334° Northwest 446 513 38,000  Level FlightAware
11:59PM -10.6570 -50.7240 333° Northwest 446 513 38,000  Level FlightAware
12:00AM -10.5530 -50.7780 333° Northwest 447 514 38,000  Level FlightAware
12:02AM -10.3725 -50.8862 329° Northwest  Level Estimated
12:02AM -10.3160 -50.8980 329° Northwest 448 516 38,000  Level FlightAware
12:03AM -10.2410 -50.9350 334° Northwest 447 514 38,000  Level FlightAware
12:03AM -10.1550 -50.9780 334° Northwest 447 514 38,000  Level FlightAware
12:04AM -10.0830 -51.0140 334° Northwest 445 512 38,000  Level FlightAware
12:05AM -10.0070 -51.0540 333° Northwest 445 512 38,000  Level FlightAware
12:05AM -9.9450 -51.0860 333° Northwest 445 512 38,000  Level FlightAware
12:06AM -9.8820 -51.1190 333° Northwest 445 512 38,000  Level FlightAware
12:06AM -10.0830 -51.0140 153° Southeast 38,000  Level FlightAware
12:09AM -9.8499 -51.1534 329° Northwest  Level Estimated
12:10AM -9.7448 -51.2163 330° Northwest  Level Estimated
12:11AM -9.6396 -51.2790 330° Northwest  Level Estimated
12:12AM -9.5344 -51.3418 330° Northwest  Level Estimated
12:13AM -9.4292 -51.4045 330° Northwest  Level Estimated
12:14AM -9.3240 -51.4672 330° Northwest  Level Estimated
12:15AM -9.2188 -51.5298 330° Northwest  Level Estimated
12:16AM -9.1136 -51.5924 330° Northwest  Level Estimated
12:17AM -9.0083 -51.6550 330° Northwest  Level Estimated
12:18AM -8.9031 -51.7175 330° Northwest  Level Estimated
12:19AM -8.7978 -51.7800 330° Northwest  Level Estimated
12:20AM -8.6925 -51.8424 330° Northwest  Level Estimated
12:21AM -8.5873 -51.9049 330° Northwest  Level Estimated
12:22AM -8.4820 -51.9672 330° Northwest  Level Estimated
12:23AM -8.3767 -52.0296 330° Northwest  Level Estimated
12:24AM -8.2714 -52.0919 330° Northwest  Level Estimated
12:25AM -8.1660 -52.1542 330° Northwest  Level Estimated
12:26AM -8.0607 -52.2164 330° Northwest  Level Estimated
12:27AM -7.9554 -52.2787 330° Northwest  Level Estimated
12:28AM -7.8500 -52.3409 330° Northwest  Level Estimated
12:29AM -7.7447 -52.4030 330° Northwest  Level Estimated
12:30AM -7.6393 -52.4651 330° Northwest  Level Estimated
12:31AM -7.5339 -52.5272 330° Northwest  Level Estimated
12:32AM -7.4285 -52.5893 330° Northwest  Level Estimated
12:33AM -7.3231 -52.6513 330° Northwest  Level Estimated
12:34AM -7.2177 -52.7133 330° Northwest  Level Estimated
12:35AM -7.1123 -52.7753 330° Northwest  Level Estimated
12:36AM -7.0069 -52.8372 330° Northwest  Level Estimated
12:37AM -6.9015 -52.8991 330° Northwest  Level Estimated
12:38AM -6.7961 -52.9610 330° Northwest  Level Estimated
12:39AM -6.6906 -53.0229 330° Northwest  Level Estimated
12:40AM -6.5852 -53.0847 330° Northwest  Level Estimated
12:41AM -6.4797 -53.1465 330° Northwest  Level Estimated
12:42AM -6.3742 -53.2083 330° Northwest  Level Estimated
12:43AM -6.2688 -53.2701 330° Northwest  Level Estimated
12:44AM -6.1633 -53.3318 330° Northwest  Level Estimated
12:45AM -6.0578 -53.3935 330° Northwest  Level Estimated
12:46AM -5.9523 -53.4552 330° Northwest  Level Estimated
12:47AM -5.8468 -53.5169 330° Northwest  Level Estimated
12:48AM -5.7413 -53.5785 330° Northwest  Level Estimated
12:49AM -5.6358 -53.6401 330° Northwest  Level Estimated
12:50AM -5.5303 -53.7017 330° Northwest  Level Estimated
12:51AM -5.4247 -53.7633 330° Northwest  Level Estimated
12:52AM -5.3192 -53.8248 330° Northwest  Level Estimated
12:53AM -5.2137 -53.8864 330° Northwest  Level Estimated
12:54AM -5.1081 -53.9479 330° Northwest  Level Estimated
12:55AM -5.0026 -54.0094 330° Northwest  Level Estimated
12:56AM -4.8970 -54.0708 330° Northwest  Level Estimated
12:57AM -4.7915 -54.1323 330° Northwest  Level Estimated
12:58AM -4.6859 -54.1937 330° Northwest  Level Estimated
12:59AM -4.5803 -54.2551 330° Northwest  Level Estimated
01:00AM -4.4747 -54.3165 330° Northwest  Level Estimated
01:01AM -4.3692 -54.3779 330° Northwest  Level Estimated
01:02AM -4.2636 -54.4393 330° Northwest  Level Estimated
01:03AM -4.1580 -54.5006 330° Northwest  Level Estimated
01:04AM -4.0524 -54.5619 330° Northwest  Level Estimated
01:05AM -3.9468 -54.6232 330° Northwest  Level Estimated
01:06AM -3.8412 -54.6845 330° Northwest  Level Estimated
01:07AM -3.7356 -54.7458 330° Northwest  Level Estimated
01:08AM -3.6299 -54.8071 330° Northwest  Level Estimated
01:09AM -3.5243 -54.8683 330° Northwest  Level Estimated
01:10AM -3.4187 -54.9296 330° Northwest  Level Estimated
01:11AM -3.3131 -54.9908 330° Northwest  Level Estimated
01:12AM -3.2074 -55.0520 330° Northwest  Level Estimated
01:13AM -3.1018 -55.1132 330° Northwest  Level Estimated
01:14AM -2.9962 -55.1744 330° Northwest  Level Estimated
01:15AM -2.8905 -55.2355 330° Northwest  Level Estimated
01:16AM -2.7849 -55.2967 330° Northwest  Level Estimated
01:17AM -2.6792 -55.3578 330° Northwest  Level Estimated
01:18AM -2.5736 -55.4190 330° Northwest  Level Estimated
01:19AM -2.4679 -55.4801 330° Northwest  Level Estimated
01:20AM -2.3623 -55.5412 330° Northwest  Level Estimated
01:21AM -2.2566 -55.6023 330° Northwest  Level Estimated
01:22AM -2.1510 -55.6634 330° Northwest  Level Estimated
01:23AM -2.0453 -55.7245 330° Northwest  Level Estimated
01:24AM -1.9396 -55.7856 330° Northwest  Level Estimated
01:25AM -1.8340 -55.8467 330° Northwest  Level Estimated
01:26AM -1.7283 -55.9078 330° Northwest  Level Estimated
01:27AM -1.6226 -55.9688 330° Northwest  Level Estimated
01:28AM -1.5170 -56.0299 330° Northwest  Level Estimated
01:29AM -1.4113 -56.0909 330° Northwest  Level Estimated
01:30AM -1.3056 -56.1520 330° Northwest  Level Estimated
01:31AM -1.1999 -56.2130 330° Northwest  Level Estimated
01:32AM -1.0942 -56.2741 330° Northwest  Level Estimated
01:33AM -0.9886 -56.3351 330° Northwest  Level Estimated
01:34AM -0.8829 -56.3961 330° Northwest  Level Estimated
01:35AM -0.7772 -56.4571 330° Northwest  Level Estimated
01:36AM -0.6715 -56.5182 330° Northwest  Level Estimated
01:37AM -0.5658 -56.5792 330° Northwest  Level Estimated
01:38AM -0.4601 -56.6402 330° Northwest  Level Estimated
01:39AM -0.3544 -56.7012 330° Northwest  Level Estimated
01:40AM -0.2487 -56.7622 330° Northwest  Level Estimated
01:41AM -0.1431 -56.8232 330° Northwest  Level Estimated
01:42AM -0.0374 -56.8842 330° Northwest  Level Estimated
01:43AM 0.0683 -56.9452 330° Northwest  Level Estimated
01:44AM 0.1740 -57.0062 330° Northwest  Level Estimated
01:45AM 0.2797 -57.0673 330° Northwest  Level Estimated
01:46AM 0.3854 -57.1283 330° Northwest  Level Estimated
01:47AM 0.4911 -57.1893 330° Northwest  Level Estimated
01:48AM 0.5968 -57.2503 330° Northwest  Level Estimated
01:49AM 0.7025 -57.3113 330° Northwest  Level Estimated
01:50AM 0.8082 -57.3723 330° Northwest  Level Estimated
01:51AM 0.9138 -57.4334 330° Northwest  Level Estimated
01:52AM 1.0195 -57.4944 330° Northwest  Level Estimated
01:53AM 1.1252 -57.5554 330° Northwest  Level Estimated
01:54AM 1.2309 -57.6165 330° Northwest  Level Estimated
01:55AM 1.3366 -57.6775 330° Northwest  Level Estimated
01:56AM 1.4422 -57.7385 330° Northwest  Level Estimated
01:57AM 1.5479 -57.7996 330° Northwest  Level Estimated
01:58AM 1.6536 -57.8607 330° Northwest  Level Estimated
01:59AM 1.7593 -57.9217 330° Northwest  Level Estimated
02:00AM 1.8649 -57.9828 330° Northwest  Level Estimated
02:01AM 1.9706 -58.0439 330° Northwest  Level Estimated
02:02AM 2.0763 -58.1050 330° Northwest  Level Estimated
02:03AM 2.1819 -58.1660 330° Northwest  Level Estimated
02:04AM 2.2876 -58.2271 330° Northwest  Level Estimated
02:05AM 2.3932 -58.2883 330° Northwest  Level Estimated
02:06AM 2.4989 -58.3494 330° Northwest  Level Estimated
02:07AM 2.6046 -58.4105 330° Northwest  Level Estimated
02:08AM 2.7102 -58.4716 330° Northwest  Level Estimated
02:09AM 2.8159 -58.5328 330° Northwest  Level Estimated
02:10AM 2.9215 -58.5940 330° Northwest  Level Estimated
02:11AM 3.0271 -58.6551 330° Northwest  Level Estimated
02:12AM 3.1328 -58.7163 330° Northwest  Level Estimated
02:13AM 3.2384 -58.7775 330° Northwest  Level Estimated
02:14AM 3.3440 -58.8387 330° Northwest  Level Estimated
02:15AM 3.4497 -58.9000 330° Northwest  Level Estimated
02:16AM 3.5553 -58.9612 330° Northwest  Level Estimated
02:17AM 3.6609 -59.0225 330° Northwest  Level Estimated
02:18AM 3.7665 -59.0837 330° Northwest  Level Estimated
02:19AM 3.8721 -59.1450 330° Northwest  Level Estimated
02:20AM 3.9777 -59.2063 330° Northwest  Level Estimated
02:21AM 4.0833 -59.2676 330° Northwest  Level Estimated
02:22AM 4.1889 -59.3289 330° Northwest  Level Estimated
02:23AM 4.2945 -59.3903 330° Northwest  Level Estimated
02:24AM 4.4001 -59.4517 330° Northwest  Level Estimated
02:25AM 4.5057 -59.5130 330° Northwest  Level Estimated
02:26AM 4.6113 -59.5744 330° Northwest  Level Estimated
02:27AM 4.7168 -59.6359 330° Northwest  Level Estimated
02:28AM 4.8224 -59.6973 330° Northwest  Level Estimated
02:29AM 4.9280 -59.7588 330° Northwest  Level Estimated
02:30AM 5.0335 -59.8202 330° Northwest  Level Estimated
02:31AM 5.1391 -59.8817 330° Northwest  Level Estimated
02:32AM 5.2446 -59.9432 330° Northwest  Level Estimated
02:33AM 5.3502 -60.0048 330° Northwest  Level Estimated
02:34AM 5.4557 -60.0663 330° Northwest  Level Estimated
02:35AM 5.5612 -60.1279 330° Northwest  Level Estimated
02:36AM 5.6667 -60.1895 330° Northwest  Level Estimated
02:37AM 5.7722 -60.2511 330° Northwest  Level Estimated
02:38AM 5.8777 -60.3128 330° Northwest  Level Estimated
02:39AM 5.9832 -60.3744 330° Northwest  Level Estimated
02:40AM 6.0887 -60.4361 330° Northwest  Level Estimated
02:41AM 6.1942 -60.4978 330° Northwest  Level Estimated
02:42AM 6.2997 -60.5596 330° Northwest  Level Estimated
02:43AM 6.4052 -60.6214 330° Northwest  Level Estimated
02:44AM 6.5106 -60.6832 330° Northwest  Level Estimated
02:45AM 6.6161 -60.7450 330° Northwest  Level Estimated
02:46AM 6.7215 -60.8068 330° Northwest  Level Estimated
02:47AM 6.8270 -60.8687 330° Northwest  Level Estimated
02:48AM 6.9324 -60.9306 330° Northwest  Level Estimated
02:49AM 7.0378 -60.9925 330° Northwest  Level Estimated
02:50AM 7.1432 -61.0545 330° Northwest  Level Estimated
02:51AM 7.2486 -61.1164 330° Northwest  Level Estimated
02:52AM 7.3540 -61.1785 330° Northwest  Level Estimated
02:53AM 7.4594 -61.2405 330° Northwest  Level Estimated
02:54AM 7.5648 -61.3026 330° Northwest  Level Estimated
02:55AM 7.6702 -61.3647 330° Northwest  Level Estimated
02:56AM 7.7755 -61.4268 330° Northwest  Level Estimated
02:57AM 7.8809 -61.4889 330° Northwest  Level Estimated
02:58AM 7.9862 -61.5512 330° Northwest  Level Estimated
02:59AM 8.0916 -61.6134 330° Northwest  Level Estimated
03:00AM 8.1969 -61.6756 330° Northwest  Level Estimated
03:01AM 8.3022 -61.7379 330° Northwest  Level Estimated
03:02AM 8.4075 -61.8003 330° Northwest  Level Estimated
03:03AM 8.5128 -61.8626 330° Northwest  Level Estimated
03:04AM 8.6181 -61.9250 330° Northwest  Level Estimated
03:05AM 8.7234 -61.9874 330° Northwest  Level Estimated
03:06AM 8.8287 -62.0499 330° Northwest  Level Estimated
03:07AM 8.9339 -62.1124 330° Northwest  Level Estimated
03:08AM 9.0392 -62.1749 330° Northwest  Level Estimated
03:09AM 9.1444 -62.2375 330° Northwest  Level Estimated
03:10AM 9.2520 -62.3015 330° Northwest  Level Estimated
03:11AM 9.3596 -62.3656 330° Northwest  Level Estimated
03:12AM 9.4672 -62.4297 330° Northwest  Level Estimated
03:13AM 9.5747 -62.4938 330° Northwest  Level Estimated
03:14AM 9.6823 -62.5580 330° Northwest  Level Estimated
03:15AM 9.7898 -62.6222 330° Northwest  Level Estimated
03:16AM 9.8974 -62.6865 330° Northwest  Level Estimated
03:17AM 10.0049 -62.7508 330° Northwest  Level Estimated
03:17AM 12.1330 -61.9740 329° Northwest 456 525 38,000  Level FlightAware
03:18AM 10.1124 -62.8152 329° Northwest  Level Estimated
03:18AM 12.1860 -62.0150 323° Northwest 456 525 38,000  Level FlightAware
03:19AM 12.1700 -62.0030 144° Southeast 456 525 38,000  Level FlightAware
03:19AM 12.3210 -62.1150 324° Northwest 455 524 38,000  Level FlightAware
03:20AM 12.3940 -62.1700 324° Northwest 455 524 38,000  Level FlightAware
03:21AM 12.4570 -62.2170 324° Northwest 454 522 38,000  Level FlightAware
03:21AM 12.5350 -62.2760 324° Northwest 454 522 38,000  Level FlightAware
03:22AM 12.6290 -62.3470 324° Northwest 454 522 38,000  Level FlightAware
03:23AM 12.7470 -62.4350 324° Northwest 453 521 38,000  Level FlightAware
03:24AM 12.8190 -62.4900 323° Northwest 452 520 38,000  Level FlightAware
03:25AM 12.8850 -62.5400 324° Northwest 452 520 38,000  Level FlightAware
03:25AM 12.9360 -62.5790 323° Northwest 452 520 38,000  Level FlightAware
03:26AM 13.0260 -62.6460 324° Northwest 452 520 38,000  Level FlightAware
03:27AM 13.1230 -62.7200 323° Northwest 452 520 38,000  Level FlightAware
03:28AM 13.1950 -62.7740 324° Northwest 452 520 38,000  Level FlightAware
03:28AM 13.2650 -62.8280 323° Northwest 453 521 38,000  Level FlightAware
03:29AM 13.3420 -62.8870 323° Northwest 453 521 38,000  Level FlightAware
03:30AM 13.4100 -62.9390 323° Northwest 454 522 38,000  Level FlightAware
03:30AM 13.4670 -62.9830 323° Northwest 455 524 38,000  Level FlightAware
03:31AM 13.5530 -63.0490 323° Northwest 455 524 38,000  Level FlightAware
03:32AM 13.6230 -63.1020 324° Northwest 454 522 38,000  Level FlightAware
03:33AM 13.6680 -63.1360 324° Northwest 454 522 38,000  Level FlightAware
03:33AM 13.7670 -63.2120 323° Northwest 453 521 38,000  Level FlightAware
03:34AM 13.8280 -63.2580 324° Northwest 454 522 38,000  Level FlightAware
03:35AM 13.9040 -63.3160 323° Northwest 454 522 38,000  Level FlightAware
03:35AM 13.9790 -63.3730 324° Northwest 455 524 38,000  Level FlightAware
03:36AM 14.0460 -63.4250 323° Northwest 455 524 38,000  Level FlightAware
03:37AM 14.1230 -63.4840 323° Northwest 455 524 38,000  Level FlightAware
03:38AM 14.1910 -63.5360 323° Northwest 455 524 38,000  Level FlightAware
03:38AM 14.2660 -63.5940 323° Northwest 455 524 38,000  Level FlightAware
03:39AM 14.3340 -63.6460 323° Northwest 455 524 38,000  Level FlightAware
03:40AM 14.3990 -63.6960 323° Northwest 455 524 38,000  Level FlightAware
03:41AM 14.4850 -63.7620 323° Northwest 455 524 38,000  Level FlightAware
03:41AM 14.5580 -63.8180 323° Northwest 455 524 38,000  Level FlightAware
03:42AM 14.6260 -63.8700 324° Northwest 454 522 38,000  Level FlightAware
03:43AM 14.6960 -63.9240 323° Northwest 454 522 38,000  Level FlightAware
03:43AM 14.6260 -63.8700 143° Southeast 452 520 38,000  Level FlightAware
03:44AM 14.8430 -64.0380 323° Northwest 452 520 38,000  Level FlightAware
03:45AM 14.9130 -64.0920 323° Northwest 452 520 38,000  Level FlightAware
03:46AM 15.0250 -64.1680 327° Northwest 457 526 38,000  Level FlightAware
03:46AM 15.0950 -64.2130 328° Northwest 457 526 38,000  Level FlightAware
03:47AM 15.0950 -64.2130 328° Northwest 458 527 38,000  Level FlightAware
03:48AM 15.2320 -64.3010 328° Northwest 458 527 38,000  Level FlightAware
03:48AM 15.2930 -64.3400 328° Northwest 458 527 38,000  Level FlightAware
03:49AM 15.3540 -64.3800 328° Northwest 458 527 38,000  Level FlightAware
03:50AM 15.4300 -64.4300 328° Northwest 458 527 38,000  Level FlightAware
03:51AM 15.4910 -64.4690 328° Northwest 458 527 38,000  Level FlightAware
03:51AM 15.5520 -64.5090 328° Northwest 458 527 38,000  Level FlightAware
03:52AM 15.6140 -64.5480 329° Northwest 458 527 38,000  Level FlightAware
03:53AM 15.6900 -64.5980 328° Northwest 458 527 38,000  Level FlightAware
03:53AM 15.7510 -64.6380 328° Northwest 458 527 38,000  Level FlightAware
03:54AM 15.8120 -64.6770 328° Northwest 458 527 38,000  Level FlightAware
03:55AM 15.8730 -64.7170 328° Northwest 458 527 38,000  Level FlightAware
03:55AM 15.9340 -64.7570 328° Northwest 458 527 38,000  Level FlightAware
03:56AM 15.9950 -64.7960 328° Northwest 458 527 38,000  Level FlightAware
03:57AM 16.0720 -64.8460 328° Northwest 458 527 38,000 1,080 Level FlightAware
03:58AM 16.3500 -65.0333 328° Northwest 440 506 40,000 1,020 Climbing San Juan Center
03:59AM 16.4500 -65.1000 327° Northwest 440 506 40,000  Level San Juan Center
04:00AM 16.5500 -65.1833 321° Northwest 440 506 40,000  Level San Juan Center
04:05AM 17.0600 -65.5170 321° Northwest 449 517 40,000  Level FlightAware
04:06AM 17.1340 -65.5680 327° Northwest 449 517 40,000  Level FlightAware
04:07AM 17.2110 -65.6210 327° Northwest 449 517 40,000  Level FlightAware
04:07AM 17.2810 -65.6680 327° Northwest 450 518 40,000  Level FlightAware
04:08AM 17.3530 -65.7160 328° Northwest 451 519 40,000  Level FlightAware
04:09AM 17.4310 -65.7670 328° Northwest 452 520 40,000  Level FlightAware
04:09AM 17.5040 -65.8170 327° Northwest 453 521 40,000  Level FlightAware
04:10AM 17.5830 -65.8700 327° Northwest 454 522 40,000  Level FlightAware
04:11AM 17.6530 -65.9170 327° Northwest 455 524 40,000  Level FlightAware
04:11AM 17.7350 -65.9730 327° Northwest 455 524 40,000  Level FlightAware
04:12AM 17.8030 -66.0190 327° Northwest 454 522 40,000  Level FlightAware
04:13AM 17.8740 -66.0670 327° Northwest 454 522 40,000  Level FlightAware
04:14AM 17.9570 -66.1230 327° Northwest 455 524 40,000  Level FlightAware
04:14AM 18.0260 -66.1700 327° Northwest 458 527 40,000  Level FlightAware
04:15AM 18.1050 -66.2250 327° Northwest 460 529 40,000  Level FlightAware
04:16AM 18.1760 -66.2730 327° Northwest 459 528 40,000  Level FlightAware
04:16AM 18.2470 -66.3220 327° Northwest 457 526 40,000  Level FlightAware
04:17AM 18.3300 -66.3800 326° Northwest 456 525 40,000  Level FlightAware
04:18AM 18.3980 -66.4280 326° Northwest 455 524 40,000  Level FlightAware
04:18AM 18.4690 -66.4780 326° Northwest 455 524 40,000  Level FlightAware
04:19AM 18.5470 -66.5310 327° Northwest 455 524 40,000  Level FlightAware
04:20AM 18.6150 -66.5790 326° Northwest 454 522 40,000  Level FlightAware
04:21AM 18.6960 -66.6340 327° Northwest 453 521 40,000  Level FlightAware
04:21AM 18.7680 -66.6840 327° Northwest 454 522 40,000  Level FlightAware
04:22AM 18.8390 -66.7330 327° Northwest 453 521 40,000  Level FlightAware
04:23AM 18.9170 -66.7860 327° Northwest 453 521 40,000  Level FlightAware
04:23AM 18.9860 -66.8330 327° Northwest 451 519 40,000  Level FlightAware
04:24AM 19.0670 -66.8890 327° Northwest 449 517 40,000  Level FlightAware
04:25AM 19.1370 -66.9370 327° Northwest 447 514 40,000  Level FlightAware
04:25AM 19.2140 -66.9900 327° Northwest 447 514 40,000  Level FlightAware
04:26AM 19.2820 -67.0370 327° Northwest 444 511 40,000  Level FlightAware
04:27AM 19.3510 -67.0850 327° Northwest 441 507 40,000  Level FlightAware
04:28AM 19.4300 -67.1400 327° Northwest 438 504 40,000  Level FlightAware
04:28AM 19.4970 -67.1860 327° Northwest 436 502 40,000  Level FlightAware
04:29AM 19.5660 -67.2340 327° Northwest 435 501 40,000  Level FlightAware
04:30AM 19.6380 -67.2840 327° Northwest 433 498 40,000  Level FlightAware
04:30AM 19.7060 -67.3310 327° Northwest 434 499 40,000  Level FlightAware
04:31AM 19.7830 -67.3850 327° Northwest 434 499 40,000  Level FlightAware
04:32AM 19.8500 -67.4320 327° Northwest 433 498 40,000  Level FlightAware
04:32AM 19.9070 -67.4720 327° Northwest 434 499 40,000  Level FlightAware
04:33AM 19.9840 -67.5260 327° Northwest 434 499 40,000  Level FlightAware
04:34AM 20.0590 -67.5780 327° Northwest 437 503 40,000  Level FlightAware
04:35AM 20.1370 -67.6330 326° Northwest 440 506 40,000  Level FlightAware
04:35AM 20.1990 -67.6770 326° Northwest 440 506 40,000  Level FlightAware
04:36AM 20.2700 -67.7360 322° Northwest 438 504 40,000  Level FlightAware
04:37AM 20.3250 -67.7860 320° Northwest 437 503 40,000  Level FlightAware
04:38AM 20.4170 -67.8660 321° Northwest 438 504 40,000  Level FlightAware
04:38AM 20.4700 -67.9130 320° Northwest 438 504 40,000  Level FlightAware
04:39AM 20.5520 -67.9790 323° Northwest 436 502 40,000  Level FlightAware
04:40AM 20.6140 -68.0320 321° Northwest 435 501 40,000  Level FlightAware
04:40AM 20.6850 -68.0920 322° Northwest 433 498 40,000  Level FlightAware
04:41AM 20.7510 -68.1490 321° Northwest 433 498 40,000  Level FlightAware
04:42AM 20.8190 -68.2080 321° Northwest 429 494 40,000  Level FlightAware
04:43AM 20.8900 -68.2710 320° Northwest 429 494 40,000  Level FlightAware
04:44AM 20.9800 -68.3500 321° Northwest 426 490 40,000  Level FlightAware
04:44AM 21.0320 -68.3960 320° Northwest 426 490 40,000  Level FlightAware
04:45AM 21.0830 -68.4430 319° Northwest 426 490 40,000  Level FlightAware
04:46AM 21.1470 -68.5000 320° Northwest 426 490 40,000  Level FlightAware
04:46AM 21.1980 -68.5460 320° Northwest 426 490 40,000  Level FlightAware
04:47AM 21.2500 -68.5930 320° Northwest 426 490 40,000  Level FlightAware
04:48AM 21.3010 -68.6390 320° Northwest 426 490 40,000  Level FlightAware
04:48AM 21.3520 -68.6850 320° Northwest 426 490 40,000  Level FlightAware
04:49AM 21.4170 -68.7430 320° Northwest 426 490 40,000  Level FlightAware
04:50AM 21.4680 -68.7890 320° Northwest 426 490 40,000  Level FlightAware
04:51AM 21.5190 -68.8360 319° Northwest 426 490 40,000  Level FlightAware
04:51AM 21.5710 -68.8820 321° Northwest 426 490 40,000  Level FlightAware
04:52AM 21.6220 -68.9280 320° Northwest 426 490 40,000  Level FlightAware
04:53AM 21.6860 -68.9860 320° Northwest 426 490 40,000  Level FlightAware
04:53AM 21.9217 -69.1692 320° Northwest 425 489 40,000  Level Miami Center
04:54AM 22.0133 -69.2486 321° Northwest 420 483 40,000  Level Miami Center
04:55AM 22.1069 -69.3328 320° Northwest 420 483 40,000  Level Miami Center
04:56AM 22.1986 -69.4125 321° Northwest 426 490 40,000  Level Miami Center
04:58AM 22.2881 -69.4950 320° Northwest 426 490 40,000  Level Miami Center
04:59AM 22.3794 -69.5772 320° Northwest 421 484 40,000  Level Miami Center
04:59AM 22.4733 -69.6617 320° Northwest 426 490 40,000  Level Miami Center
05:00AM 22.5647 -69.7464 319° Northwest 426 490 40,000  Level Miami Center
05:01AM 22.6583 -69.8289 321° Northwest 425 489 40,000  Level Miami Center
05:02AM 22.7475 -69.9094 320° Northwest 425 489 40,000  Level Miami Center
05:03AM 22.8411 -69.9944 320° Northwest 425 489 40,000  Level Miami Center
05:04AM 22.9347 -70.0819 319° Northwest 426 490 40,000  Level Miami Center
05:05AM 23.0283 -70.1669 320° Northwest 432 497 40,000  Level Miami Center
05:06AM 23.1217 -70.2481 321° Northwest 427 491 40,000  Level Miami Center
05:07AM 23.2106 -70.3292 320° Northwest 427 491 40,000  Level Miami Center
05:08AM 23.3061 -70.4147 321° Northwest 423 487 40,000  Level Miami Center
05:09AM 23.3975 -70.5003 319° Northwest 428 493 40,000  Level Miami Center
05:10AM 23.4886 -70.5819 321° Northwest 428 493 40,000  Level Miami Center
05:11AM 23.5800 -70.6703 318° Northwest 428 493 40,000  Level Miami Center
05:12AM 23.6797 -70.7628 320° Northwest 428 493 40,000  Level Miami Center
05:13AM 23.7661 -70.8378 322° Northwest 428 493 40,000  Level Miami Center
05:14AM 23.8550 -70.9200 320° Northwest 422 486 40,000  Level Miami Center
05:15AM 23.9461 -71.0042 320° Northwest 423 487 40,000  Level Miami Center
05:17AM 24.0389 -71.0839 322° Northwest 423 487 40,000  Level Miami Center
05:18AM 24.1281 -71.1775 316° Northwest 423 487 40,000  Level Miami Center
05:18AM 24.2208 -71.2575 322° Northwest 423 487 40,000  Level Miami Center
05:19AM 24.3097 -71.3447 318° Northwest 428 493 40,000  Level Miami Center
05:20AM 24.4028 -71.4294 320° Northwest 428 493 40,000  Level Miami Center
05:21AM 24.4936 -71.5167 319° Northwest 428 493 40,000  Level Miami Center
05:22AM 24.5844 -71.6086 317° Northwest 428 493 40,000  Level Miami Center
05:23AM 24.6747 -71.6825 323° Northwest 423 487 40,000  Level Miami Center
05:24AM 24.7656 -71.7725 318° Northwest 423 487 40,000  Level Miami Center
05:26AM 24.8542 -71.8558 320° Northwest 423 487 40,000  Level Miami Center
05:26AM 24.9556 -71.9547 319° Northwest 428 493 40,000  Level Miami Center
05:27AM 25.0522 -72.0311 324° Northwest 428 493 40,000  Level Miami Center
05:28AM 25.1586 -72.0981 330° Northwest 436 502 40,000  Level Miami Center
05:29AM 25.0000 -72.0000 330° Northwest 450 518 40,000  Level New York Oceanic (ODAPS)
05:36AM 25.9783 -72.6225 330° Northwest 450 518 40,000  Level FlightAware Transoceanic
05:37AM 26.0868 -72.6923 330° Northwest 450 518 40,000  Level FlightAware Transoceanic
05:38AM 26.1953 -72.7623 330° Northwest 450 518 40,000  Level FlightAware Transoceanic
05:39AM 26.3037 -72.8323 330° Northwest 450 518 40,000  Level FlightAware Transoceanic
05:40AM 26.4122 -72.9025 330° Northwest 450 518 40,000  Level FlightAware Transoceanic
05:41AM 26.5206 -72.9728 330° Northwest 450 518 40,000  Level FlightAware Transoceanic
05:42AM 26.6289 -73.0433 330° Northwest 450 518 40,000  Level FlightAware Transoceanic
05:43AM 26.7372 -73.1139 330° Northwest 450 518 40,000  Level FlightAware Transoceanic
05:44AM 26.8455 -73.1846 330° Northwest 450 518 40,000  Level FlightAware Transoceanic
05:45AM 26.9538 -73.2555 330° Northwest 450 518 40,000  Level FlightAware Transoceanic
05:46AM 27.0620 -73.3265 330° Northwest 450 518 40,000  Level FlightAware Transoceanic
05:47AM 27.1702 -73.3976 330° Northwest 450 518 40,000  Level FlightAware Transoceanic
05:48AM 27.2783 -73.4689 330° Northwest 450 518 40,000  Level FlightAware Transoceanic
05:49AM 27.3864 -73.5403 330° Northwest 450 518 40,000  Level FlightAware Transoceanic
05:50AM 27.4945 -73.6118 330° Northwest 450 518 40,000  Level FlightAware Transoceanic
05:51AM 27.6026 -73.6835 330° Northwest 450 518 40,000  Level FlightAware Transoceanic
05:52AM 27.7106 -73.7553 329° Northwest 450 518 40,000  Level FlightAware Transoceanic
05:53AM 27.8185 -73.8273 329° Northwest 450 518 40,000  Level FlightAware Transoceanic
05:54AM 27.9265 -73.8994 329° Northwest 450 518 40,000  Level FlightAware Transoceanic
05:55AM 28.0343 -73.9717 329° Northwest 450 518 40,000  Level FlightAware Transoceanic
05:56AM 28.1422 -74.0441 329° Northwest 450 518 40,000  Level FlightAware Transoceanic
05:57AM 28.2500 -74.1167 322° Northwest 450 518 40,000  Level FlightAware Transoceanic
05:58AM 28.3448 -74.2015 322° Northwest 450 518 40,000  Level FlightAware Transoceanic
05:59AM 28.4396 -74.2865 322° Northwest 450 518 40,000  Level FlightAware Transoceanic
06:00AM 28.5343 -74.3716 322° Northwest 450 518 40,000  Level FlightAware Transoceanic
06:01AM 28.6290 -74.4568 322° Northwest 450 518 40,000  Level FlightAware Transoceanic
06:01AM 28.2500 -74.1167 322° Northwest 421 484 40,000  Level New York Oceanic (ODAPS)
06:02AM 28.7236 -74.5423 322° Northwest 450 518 40,000  Level FlightAware Transoceanic
06:03AM 28.8182 -74.6279 322° Northwest 450 518 40,000  Level FlightAware Transoceanic
06:04AM 28.9127 -74.7136 322° Northwest 450 518 40,000  Level FlightAware Transoceanic
06:05AM 29.0072 -74.7995 321° Northwest 450 518 40,000  Level FlightAware Transoceanic
06:06AM 29.1016 -74.8855 321° Northwest 450 518 40,000  Level FlightAware Transoceanic
06:07AM 29.1682 -74.9464 321° Northwest 421 484 40,000  Level FlightAware Transoceanic
06:08AM 29.2597 -75.0301 321° Northwest 421 484 40,000  Level FlightAware Transoceanic
06:09AM 29.3512 -75.1141 321° Northwest 421 484 40,000  Level FlightAware Transoceanic
06:10AM 29.4426 -75.1982 321° Northwest 421 484 40,000  Level FlightAware Transoceanic
06:11AM 29.5340 -75.2824 321° Northwest 421 484 40,000  Level FlightAware Transoceanic
06:12AM 29.6253 -75.3668 321° Northwest 421 484 40,000  Level FlightAware Transoceanic
06:13AM 29.7166 -75.4513 321° Northwest 421 484 40,000  Level FlightAware Transoceanic
06:14AM 29.8078 -75.5360 321° Northwest 421 484 40,000  Level FlightAware Transoceanic
06:15AM 29.8990 -75.6208 321° Northwest 421 484 40,000  Level FlightAware Transoceanic
06:16AM 29.9901 -75.7058 321° Northwest 421 484 40,000  Level FlightAware Transoceanic
06:17AM 30.0812 -75.7910 321° Northwest 421 484 40,000  Level FlightAware Transoceanic
06:18AM 30.1721 -75.8763 321° Northwest 421 484 40,000  Level FlightAware Transoceanic
06:19AM 30.2631 -75.9618 321° Northwest 421 484 40,000  Level FlightAware Transoceanic
06:20AM 30.3540 -76.0474 321° Northwest 421 484 40,000  Level FlightAware Transoceanic
06:21AM 30.4448 -76.1332 321° Northwest 421 484 40,000  Level FlightAware Transoceanic
06:22AM 30.5356 -76.2191 321° Northwest 421 484 40,000  Level FlightAware Transoceanic
06:23AM 30.6263 -76.3053 321° Northwest 421 484 40,000  Level FlightAware Transoceanic
06:24AM 30.7170 -76.3915 321° Northwest 421 484 40,000  Level FlightAware Transoceanic
06:25AM 30.8076 -76.4780 321° Northwest 421 484 40,000  Level FlightAware Transoceanic
06:26AM 30.8981 -76.5646 321° Northwest 421 484 40,000  Level FlightAware Transoceanic
06:26AM 30.8994 -76.5481 320° Northwest 474 545 40,000  Level Jacksonville Center
06:27AM 30.9886 -76.6513 321° Northwest 421 484 40,000  Level FlightAware Transoceanic
06:27AM 30.9958 -76.6386 321° Northwest 461 531 40,000  Level Jacksonville Center
06:28AM 31.0791 -76.7382 321° Northwest 421 484 40,000  Level FlightAware Transoceanic
06:28AM 31.0858 -76.7294 319° Northwest 440 506 40,000  Level Jacksonville Center
06:29AM 31.1694 -76.8253 320° Northwest 421 484 40,000  Level FlightAware Transoceanic
06:29AM 31.1758 -76.8256 318° Northwest 440 506 40,000  Level Jacksonville Center
06:30AM 31.2597 -76.9126 320° Northwest 421 484 40,000  Level FlightAware Transoceanic
06:30AM 31.2719 -76.9117 323° Northwest 434 499 40,000  Level Jacksonville Center
06:31AM 31.3636 -77.0006 320° Northwest 429 494 40,000  Level Jacksonville Center
06:32AM 31.4556 -77.0947 319° Northwest 424 488 40,000  Level Jacksonville Center
06:33AM 31.5453 -77.1842 320° Northwest 424 488 40,000  Level Jacksonville Center
06:34AM 31.6350 -77.2786 318° Northwest 429 494 40,000  Level Jacksonville Center
06:35AM 31.7311 -77.3753 319° Northwest 435 501 40,000  Level Jacksonville Center
06:36AM 31.8208 -77.4700 318° Northwest 435 501 40,000  Level Jacksonville Center
06:37AM 31.9147 -77.5650 319° Northwest 430 495 40,000  Level Jacksonville Center
06:38AM 32.0064 -77.6650 317° Northwest 442 509 40,000 -60 Level Jacksonville Center
06:44AM 32.4790 -78.2200 317° Northwest 445 512 39,900 -240 Descending FlightAware
06:44AM 32.5550 -78.3000 318° Northwest 466 536 38,800 -1,500 Descending FlightAware
06:45AM 32.6210 -78.3690 319° Northwest 478 550 37,800 -1,500 Descending FlightAware
06:46AM 32.6830 -78.4340 319° Northwest 474 545 36,800 -1,500 Descending FlightAware
06:47AM 32.7600 -78.5150 319° Northwest 475 547 35,700 -1,500 Descending FlightAware
06:47AM 32.8230 -78.5820 318° Northwest 484 557 34,700 -1,440 Descending FlightAware
06:48AM 32.9030 -78.6670 318° Northwest 487 560 33,700 -1,440 Descending FlightAware
06:49AM 32.9700 -78.7390 318° Northwest 482 555 32,700 -1,500 Descending FlightAware
06:49AM 33.0440 -78.8180 318° Northwest 480 552 31,600 -1,440 Descending FlightAware
06:50AM 33.1110 -78.8900 318° Northwest 487 560 30,700 -1,440 Descending FlightAware
06:51AM 33.1790 -78.9620 318° Northwest 488 562 29,700 -1,500 Descending FlightAware
06:51AM 33.2530 -79.0420 318° Northwest 482 555 28,600 -1,500 Descending FlightAware
06:52AM 33.3190 -79.1140 318° Northwest 496 571 27,600 -1,500 Descending FlightAware
06:53AM 33.3960 -79.1990 317° Northwest 496 571 26,500 -1,500 Descending FlightAware
06:54AM 33.4620 -79.2720 317° Northwest 484 557 25,500 -1,320 Descending FlightAware
06:54AM 33.5280 -79.3440 318° Northwest 483 556 24,800 -1,020 Descending FlightAware
06:55AM 33.6040 -79.4260 318° Northwest 485 558 24,100 -1,020 Descending FlightAware
06:56AM 33.6690 -79.4960 318° Northwest 471 542 23,400 -1,020 Descending FlightAware
06:56AM 33.7410 -79.5720 319° Northwest 464 534 22,700 -1,020 Descending FlightAware
06:57AM 33.8060 -79.6420 318° Northwest 461 531 22,000 -1,020 Descending FlightAware
06:58AM 33.8710 -79.7110 319° Northwest 458 527 21,400 -1,020 Descending FlightAware
06:58AM 33.9370 -79.7830 318° Northwest 449 517 20,600 -1,080 Descending FlightAware
06:59AM 34.0010 -79.8530 318° Northwest 445 512 19,900 -1,020 Descending FlightAware
07:00AM 34.0650 -79.9140 322° Northwest 450 518 19,300 -960 Descending FlightAware
07:01AM 34.1440 -79.9670 331° Northwest 451 519 18,600 -1,020 Descending FlightAware
07:01AM 34.2100 -80.0090 332° Northwest 445 512 18,000 -1,080 Descending FlightAware
07:02AM 34.3030 -80.0690 332° Northwest 441 507 17,100 -1,620 Descending FlightAware
07:03AM 34.3750 -80.1150 332° Northwest 435 501 15,600 -1,860 Descending FlightAware
07:03AM 34.4520 -80.1650 332° Northwest 403 464 14,500 -1,560 Descending FlightAware
07:04AM 34.5160 -80.2080 331° Northwest 386 444 13,400 -1,800 Descending FlightAware
07:05AM 34.5660 -80.2400 332° Northwest 378 435 12,300 -1,380 Descending FlightAware
07:06AM 34.6540 -80.3030 330° Northwest 368 423 11,300 -660 Descending FlightAware
07:07AM 34.7170 -80.3820 314° West 355 409 11,100 -120 Descending FlightAware
07:08AM 34.7290 -80.3980 312° West 381 438 11,100  Level FlightAware
07:08AM 34.7710 -80.4510 314° West 381 438 11,100  Level FlightAware
07:09AM 34.8120 -80.5030 314° West 381 438 11,100 -540 Level FlightAware
07:09AM 34.6890 -80.3470 134° Southeast 11,100 -660 Level FlightAware
07:12AM 35.1250 -80.8220 318° Northwest 323 372 9,200 -600 Descending FlightAware
07:12AM 35.1640 -80.8250 356° North 316 364 9,100 -780 Descending FlightAware
07:13AM 35.2090 -80.8310 354° North 314 361 8,500 -1,320 Descending FlightAware
07:13AM 35.2450 -80.8360 354° North 308 354 7,900 -1,380 Descending FlightAware
07:14AM 35.2660 -80.8390 353° North 303 349 7,600 -1,740 Descending FlightAware
07:14AM 35.3040 -80.8440 354° North 299 344 6,600 -2,100 Descending FlightAware
07:15AM 35.3410 -80.8480 355° North 294 338 5,700 -1,560 Descending FlightAware
07:15AM 35.3810 -80.8520 355° North 278 320 5,200 -840 Descending FlightAware
07:15AM 35.4000 -80.8540 355° North 264 304 5,100 -480 Descending FlightAware
07:16AM 35.4270 -80.8570 355° North 251 289 4,900 -600 Descending FlightAware
07:16AM 35.4420 -80.8710 323° Northwest 242 278 4,700 -840 Descending FlightAware
07:16AM 35.4480 -80.8890 292° West 226 260 4,500 -900 Descending FlightAware
07:17AM 35.4470 -80.9210 268° West 216 249 4,100 -540 Descending FlightAware
07:17AM 35.4470 -80.9440 270° West 211 243 4,100  Level FlightAware
07:17AM 35.4350 -80.9650 235° Southwest 185 213 4,100  Level FlightAware
07:18AM 35.4230 -80.9700 199° South 187 215 4,100  Level FlightAware
07:18AM 35.4030 -80.9750 192° South 167 192 4,100 -240 Level FlightAware
07:19AM 35.3800 -80.9720 174° South 166 191 3,900 -660 Descending FlightAware
07:19AM 35.3610 -80.9700 175° South 165 190 3,500 -900 Descending FlightAware
07:19AM 35.3500 -80.9690 176° South 162 186 3,300 -840 Descending FlightAware
07:20AM 35.3290 -80.9670 176° South 136 157 2,900 -840 Descending FlightAware
07:20AM 35.3210 -80.9660 174° South 124 143 2,700 -780 Descending FlightAware
07:20AM 35.3070 -80.9650 177° South 126 145 2,400 -600 Descending FlightAware
07:21AM 35.2980 -80.9640 175° South 121 139 2,300 -600 Descending FlightAware
07:21AM 35.2830 -80.9630 177° South 123 142 2,000 -660 Descending FlightAware
07:22AM 35.2670 -80.9610 174° South 125 144 1,700 -360 Descending FlightAware
07:22AM 35.2550 -80.9600 176° South 125 144 1,700  Level FlightAware